sensor_id;sensor_type;location;lat;lon;timestamp;temperature;humidity
27226;DHT22;14732;51.074;3.788;2023-05-27T00:00:19;13.50;99.90
27226;DHT22;14732;51.074;3.788;2023-05-27T00:02:45;13.50;99.90
27226;DHT22;14732;51.074;3.788;2023-05-27T00:05:11;13.50;99.90
27226;DHT22;14732;51.074;3.788;2023-05-27T00:07:36;13.50;99.90
27226;DHT22;14732;51.074;3.788;2023-05-27T00:10:02;13.20;99.90
27226;DHT22;14732;51.074;3.788;2023-05-27T00:12:28;13.10;99.90
27226;DHT22;14732;51.074;3.788;2023-05-27T00:14:54;13.20;99.90
27226;DHT22;14732;51.074;3.788;2023-05-27T00:17:19;13.20;99.90
27226;DHT22;14732;51.074;3.788;2023-05-27T00:19:46;13.10;99.90
27226;DHT22;14732;51.074;3.788;2023-05-27T00:22:13;13.10;99.90
27226;DHT22;14732;51.074;3.788;2023-05-27T00:24:39;13.00;99.90
27226;DHT22;14732;51.074;3.788;2023-05-27T00:27:07;13.00;99.90
27226;DHT22;14732;51.074;3.788;2023-05-27T00:29:33;13.10;99.90
27226;DHT22;14732;51.074;3.788;2023-05-27T00:32:00;13.10;99.90
27226;DHT22;14732;51.074;3.788;2023-05-27T00:34:28;13.20;99.90
27226;DHT22;14732;51.074;3.788;2023-05-27T00:36:54;13.20;99.90
27226;DHT22;14732;51.074;3.788;2023-05-27T00:39:20;13.30;99.90
27226;DHT22;14732;51.074;3.788;2023-05-27T00:41:48;13.30;99.90
27226;DHT22;14732;51.074;3.788;2023-05-27T00:44:16;13.20;99.90
27226;DHT22;14732;51.074;3.788;2023-05-27T00:46:43;13.20;99.90
27226;DHT22;14732;51.074;3.788;2023-05-27T00:49:09;13.10;99.90
27226;DHT22;14732;51.074;3.788;2023-05-27T00:51:35;12.90;99.90
27226;DHT22;14732;51.074;3.788;2023-05-27T00:54:00;12.90;99.90
27226;DHT22;14732;51.074;3.788;2023-05-27T00:56:26;12.90;99.90
27226;DHT22;14732;51.074;3.788;2023-05-27T00:58:52;12.80;99.90
27226;DHT22;14732;51.074;3.788;2023-05-27T01:01:18;12.80;99.90
27226;DHT22;14732;51.074;3.788;2023-05-27T01:03:46;12.80;99.90
27226;DHT22;14732;51.074;3.788;2023-05-27T01:12:03;12.70;99.90
27226;DHT22;14732;51.074;3.788;2023-05-27T01:14:33;12.70;99.90
27226;DHT22;14732;51.074;3.788;2023-05-27T01:17:03;12.60;99.90
27226;DHT22;14732;51.074;3.788;2023-05-27T01:19:34;12.60;99.90
27226;DHT22;14732;51.074;3.788;2023-05-27T01:22:01;12.50;99.90
27226;DHT22;14732;51.074;3.788;2023-05-27T01:24:27;12.50;99.90
27226;DHT22;14732;51.074;3.788;2023-05-27T01:26:54;12.50;99.90
27226;DHT22;14732;51.074;3.788;2023-05-27T01:29:22;12.50;99.90
27226;DHT22;14732;51.074;3.788;2023-05-27T01:31:58;12.50;99.90
27226;DHT22;14732;51.074;3.788;2023-05-27T01:34:33;12.50;99.90
27226;DHT22;14732;51.074;3.788;2023-05-27T01:37:05;12.30;99.90
27226;DHT22;14732;51.074;3.788;2023-05-27T01:39:32;12.30;99.90
27226;DHT22;14732;51.074;3.788;2023-05-27T01:41:59;12.20;99.90
27226;DHT22;14732;51.074;3.788;2023-05-27T01:44:28;12.30;99.90
27226;DHT22;14732;51.074;3.788;2023-05-27T01:47:02;12.40;99.90
27226;DHT22;14732;51.074;3.788;2023-05-27T01:49:28;12.40;99.90
27226;DHT22;14732;51.074;3.788;2023-05-27T01:51:54;12.30;99.90
27226;DHT22;14732;51.074;3.788;2023-05-27T01:54:20;12.20;99.90
27226;DHT22;14732;51.074;3.788;2023-05-27T01:56:46;12.10;99.90
27226;DHT22;14732;51.074;3.788;2023-05-27T01:59:12;12.10;99.90
27226;DHT22;14732;51.074;3.788;2023-05-27T02:01:37;12.20;99.90
27226;DHT22;14732;51.074;3.788;2023-05-27T02:04:03;12.20;99.90
27226;DHT22;14732;51.074;3.788;2023-05-27T02:06:29;12.20;99.90
27226;DHT22;14732;51.074;3.788;2023-05-27T02:08:55;12.20;99.90
27226;DHT22;14732;51.074;3.788;2023-05-27T02:11:21;12.20;99.90
27226;DHT22;14732;51.074;3.788;2023-05-27T02:13:47;12.10;99.90
27226;DHT22;14732;51.074;3.788;2023-05-27T02:16:12;12.20;99.90
27226;DHT22;14732;51.074;3.788;2023-05-27T02:18:40;12.10;99.90
27226;DHT22;14732;51.074;3.788;2023-05-27T02:21:06;12.10;99.90
27226;DHT22;14732;51.074;3.788;2023-05-27T02:23:33;12.00;99.90
27226;DHT22;14732;51.074;3.788;2023-05-27T02:25:58;11.90;99.90
27226;DHT22;14732;51.074;3.788;2023-05-27T02:28:26;11.90;99.90
27226;DHT22;14732;51.074;3.788;2023-05-27T02:30:52;11.90;99.90
27226;DHT22;14732;51.074;3.788;2023-05-27T02:33:18;11.80;99.90
27226;DHT22;14732;51.074;3.788;2023-05-27T02:35:43;11.80;99.90
27226;DHT22;14732;51.074;3.788;2023-05-27T02:38:09;11.80;99.90
27226;DHT22;14732;51.074;3.788;2023-05-27T02:40:35;11.80;99.90
27226;DHT22;14732;51.074;3.788;2023-05-27T02:43:00;11.50;99.90
27226;DHT22;14732;51.074;3.788;2023-05-27T02:45:26;11.50;99.90
27226;DHT22;14732;51.074;3.788;2023-05-27T02:47:52;11.50;99.90
27226;DHT22;14732;51.074;3.788;2023-05-27T02:50:17;11.50;99.90
27226;DHT22;14732;51.074;3.788;2023-05-27T02:52:43;11.40;99.90
27226;DHT22;14732;51.074;3.788;2023-05-27T02:55:09;11.40;99.90
27226;DHT22;14732;51.074;3.788;2023-05-27T02:57:34;11.40;99.90
27226;DHT22;14732;51.074;3.788;2023-05-27T03:00:01;11.50;99.90
27226;DHT22;14732;51.074;3.788;2023-05-27T03:02:26;11.60;99.90
27226;DHT22;14732;51.074;3.788;2023-05-27T03:04:52;11.70;99.90
27226;DHT22;14732;51.074;3.788;2023-05-27T03:07:20;11.60;99.90
27226;DHT22;14732;51.074;3.788;2023-05-27T03:09:46;11.60;99.90
27226;DHT22;14732;51.074;3.788;2023-05-27T03:12:12;11.50;99.90
27226;DHT22;14732;51.074;3.788;2023-05-27T03:14:37;11.40;99.90
27226;DHT22;14732;51.074;3.788;2023-05-27T03:17:03;11.50;99.90
27226;DHT22;14732;51.074;3.788;2023-05-27T03:19:29;11.40;99.90
27226;DHT22;14732;51.074;3.788;2023-05-27T03:21:54;11.40;99.90
27226;DHT22;14732;51.074;3.788;2023-05-27T03:24:20;11.30;99.90
27226;DHT22;14732;51.074;3.788;2023-05-27T03:26:46;11.30;99.90
27226;DHT22;14732;51.074;3.788;2023-05-27T03:29:11;11.20;99.90
27226;DHT22;14732;51.074;3.788;2023-05-27T03:31:37;11.20;99.90
27226;DHT22;14732;51.074;3.788;2023-05-27T03:34:03;11.20;99.90
27226;DHT22;14732;51.074;3.788;2023-05-27T03:36:28;11.20;99.90
27226;DHT22;14732;51.074;3.788;2023-05-27T03:38:55;11.20;99.90
27226;DHT22;14732;51.074;3.788;2023-05-27T03:41:21;11.10;99.90
27226;DHT22;14732;51.074;3.788;2023-05-27T03:43:47;11.20;99.90
27226;DHT22;14732;51.074;3.788;2023-05-27T03:46:13;11.20;99.90
27226;DHT22;14732;51.074;3.788;2023-05-27T03:48:38;11.20;99.90
27226;DHT22;14732;51.074;3.788;2023-05-27T03:51:04;11.20;99.90
27226;DHT22;14732;51.074;3.788;2023-05-27T03:53:30;11.20;99.90
27226;DHT22;14732;51.074;3.788;2023-05-27T03:55:57;11.20;99.90
27226;DHT22;14732;51.074;3.788;2023-05-27T03:58:22;11.20;99.90
27226;DHT22;14732;51.074;3.788;2023-05-27T04:00:48;11.10;99.90
27226;DHT22;14732;51.074;3.788;2023-05-27T04:03:14;10.90;99.90
27226;DHT22;14732;51.074;3.788;2023-05-27T04:05:40;11.00;99.90
27226;DHT22;14732;51.074;3.788;2023-05-27T04:08:06;11.10;99.90
27226;DHT22;14732;51.074;3.788;2023-05-27T04:10:31;11.10;99.90
27226;DHT22;14732;51.074;3.788;2023-05-27T04:12:57;11.10;99.90
27226;DHT22;14732;51.074;3.788;2023-05-27T04:15:23;11.10;99.90
27226;DHT22;14732;51.074;3.788;2023-05-27T04:17:48;11.20;99.90
27226;DHT22;14732;51.074;3.788;2023-05-27T04:20:14;11.20;99.90
27226;DHT22;14732;51.074;3.788;2023-05-27T04:22:43;11.30;99.90
27226;DHT22;14732;51.074;3.788;2023-05-27T04:25:09;11.10;99.90
27226;DHT22;14732;51.074;3.788;2023-05-27T04:27:35;11.10;99.90
27226;DHT22;14732;51.074;3.788;2023-05-27T04:30:03;11.20;99.90
27226;DHT22;14732;51.074;3.788;2023-05-27T04:32:29;11.30;99.90
27226;DHT22;14732;51.074;3.788;2023-05-27T04:34:58;11.50;99.90
27226;DHT22;14732;51.074;3.788;2023-05-27T04:37:25;11.40;99.90
27226;DHT22;14732;51.074;3.788;2023-05-27T04:39:54;11.50;99.90
27226;DHT22;14732;51.074;3.788;2023-05-27T04:42:22;11.30;99.90
27226;DHT22;14732;51.074;3.788;2023-05-27T04:44:48;11.30;99.90
27226;DHT22;14732;51.074;3.788;2023-05-27T04:47:14;11.20;99.90
27226;DHT22;14732;51.074;3.788;2023-05-27T04:49:39;11.20;99.90
27226;DHT22;14732;51.074;3.788;2023-05-27T04:52:05;11.20;99.90
27226;DHT22;14732;51.074;3.788;2023-05-27T04:54:33;11.20;99.90
27226;DHT22;14732;51.074;3.788;2023-05-27T04:56:59;11.30;99.90
27226;DHT22;14732;51.074;3.788;2023-05-27T04:59:25;11.70;99.90
27226;DHT22;14732;51.074;3.788;2023-05-27T05:02:01;11.80;99.90
27226;DHT22;14732;51.074;3.788;2023-05-27T05:04:39;11.90;99.90
27226;DHT22;14732;51.074;3.788;2023-05-27T05:07:05;12.20;99.90
27226;DHT22;14732;51.074;3.788;2023-05-27T05:09:31;12.60;99.90
27226;DHT22;14732;51.074;3.788;2023-05-27T05:11:56;12.80;99.90
27226;DHT22;14732;51.074;3.788;2023-05-27T05:14:22;12.40;99.90
27226;DHT22;14732;51.074;3.788;2023-05-27T05:16:47;12.30;99.90
27226;DHT22;14732;51.074;3.788;2023-05-27T05:19:13;12.70;99.90
27226;DHT22;14732;51.074;3.788;2023-05-27T05:21:39;13.70;99.90
27226;DHT22;14732;51.074;3.788;2023-05-27T05:24:05;15.00;99.90
27226;DHT22;14732;51.074;3.788;2023-05-27T05:26:31;16.20;99.90
27226;DHT22;14732;51.074;3.788;2023-05-27T05:28:56;17.10;99.90
27226;DHT22;14732;51.074;3.788;2023-05-27T05:31:23;18.20;99.90
27226;DHT22;14732;51.074;3.788;2023-05-27T05:33:49;19.40;99.90
27226;DHT22;14732;51.074;3.788;2023-05-27T05:36:18;19.10;99.90
27226;DHT22;14732;51.074;3.788;2023-05-27T05:38:46;20.00;99.90
27226;DHT22;14732;51.074;3.788;2023-05-27T05:41:12;20.70;99.90
27226;DHT22;14732;51.074;3.788;2023-05-27T05:43:38;20.80;99.90
27226;DHT22;14732;51.074;3.788;2023-05-27T05:46:03;21.60;99.90
27226;DHT22;14732;51.074;3.788;2023-05-27T05:48:29;21.70;99.90
27226;DHT22;14732;51.074;3.788;2023-05-27T05:50:55;22.40;99.90
27226;DHT22;14732;51.074;3.788;2023-05-27T05:53:20;22.60;99.90
27226;DHT22;14732;51.074;3.788;2023-05-27T05:55:46;23.30;99.90
27226;DHT22;14732;51.074;3.788;2023-05-27T05:58:12;24.30;99.90
27226;DHT22;14732;51.074;3.788;2023-05-27T06:00:38;25.50;99.10
27226;DHT22;14732;51.074;3.788;2023-05-27T06:03:03;26.60;97.50
27226;DHT22;14732;51.074;3.788;2023-05-27T06:05:29;26.90;93.20
27226;DHT22;14732;51.074;3.788;2023-05-27T06:07:55;26.70;92.60
27226;DHT22;14732;51.074;3.788;2023-05-27T06:10:20;27.20;91.40
27226;DHT22;14732;51.074;3.788;2023-05-27T06:12:46;27.80;89.40
27226;DHT22;14732;51.074;3.788;2023-05-27T06:15:12;28.60;88.20
27226;DHT22;14732;51.074;3.788;2023-05-27T06:17:38;27.30;86.20
27226;DHT22;14732;51.074;3.788;2023-05-27T06:20:04;27.90;86.60
27226;DHT22;14732;51.074;3.788;2023-05-27T06:22:29;28.90;84.00
27226;DHT22;14732;51.074;3.788;2023-05-27T06:24:55;29.80;80.80
27226;DHT22;14732;51.074;3.788;2023-05-27T06:27:21;30.00;79.40
27226;DHT22;14732;51.074;3.788;2023-05-27T06:29:46;30.80;77.70
27226;DHT22;14732;51.074;3.788;2023-05-27T06:32:12;29.90;74.90
27226;DHT22;14732;51.074;3.788;2023-05-27T06:34:38;28.70;76.00
27226;DHT22;14732;51.074;3.788;2023-05-27T06:37:03;26.90;79.30
27226;DHT22;14732;51.074;3.788;2023-05-27T06:39:29;24.90;82.40
27226;DHT22;14732;51.074;3.788;2023-05-27T06:41:55;24.30;85.90
27226;DHT22;14732;51.074;3.788;2023-05-27T06:44:21;23.90;87.80
27226;DHT22;14732;51.074;3.788;2023-05-27T06:46:46;23.80;89.00
27226;DHT22;14732;51.074;3.788;2023-05-27T06:49:12;22.80;90.00
27226;DHT22;14732;51.074;3.788;2023-05-27T06:51:38;22.70;91.50
27226;DHT22;14732;51.074;3.788;2023-05-27T06:54:04;22.10;91.70
27226;DHT22;14732;51.074;3.788;2023-05-27T06:56:29;22.50;92.20
27226;DHT22;14732;51.074;3.788;2023-05-27T06:58:56;21.70;91.40
27226;DHT22;14732;51.074;3.788;2023-05-27T07:01:22;21.30;92.80
27226;DHT22;14732;51.074;3.788;2023-05-27T07:03:48;21.00;93.40
27226;DHT22;14732;51.074;3.788;2023-05-27T07:06:14;20.90;94.90
27226;DHT22;14732;51.074;3.788;2023-05-27T07:08:43;20.50;94.60
27226;DHT22;14732;51.074;3.788;2023-05-27T07:11:08;20.30;96.30
27226;DHT22;14732;51.074;3.788;2023-05-27T07:13:34;20.10;97.60
27226;DHT22;14732;51.074;3.788;2023-05-27T07:16:00;19.80;98.00
27226;DHT22;14732;51.074;3.788;2023-05-27T07:18:25;19.70;98.60
27226;DHT22;14732;51.074;3.788;2023-05-27T07:20:51;19.80;98.90
27226;DHT22;14732;51.074;3.788;2023-05-27T07:23:17;19.70;99.40
27226;DHT22;14732;51.074;3.788;2023-05-27T07:25:42;19.70;98.60
27226;DHT22;14732;51.074;3.788;2023-05-27T07:28:08;20.10;99.80
27226;DHT22;14732;51.074;3.788;2023-05-27T07:30:33;20.90;99.20
27226;DHT22;14732;51.074;3.788;2023-05-27T07:32:59;22.00;96.80
27226;DHT22;14732;51.074;3.788;2023-05-27T07:35:25;22.30;95.50
27226;DHT22;14732;51.074;3.788;2023-05-27T07:37:51;22.60;95.60
27226;DHT22;14732;51.074;3.788;2023-05-27T07:40:16;22.40;94.80
27226;DHT22;14732;51.074;3.788;2023-05-27T07:42:42;22.30;95.70
27226;DHT22;14732;51.074;3.788;2023-05-27T07:45:08;22.00;96.70
27226;DHT22;14732;51.074;3.788;2023-05-27T07:47:34;21.80;95.60
27226;DHT22;14732;51.074;3.788;2023-05-27T07:49:59;21.60;96.20
27226;DHT22;14732;51.074;3.788;2023-05-27T07:52:25;21.50;95.80
27226;DHT22;14732;51.074;3.788;2023-05-27T07:54:51;21.30;97.00
27226;DHT22;14732;51.074;3.788;2023-05-27T07:57:17;20.80;97.30
27226;DHT22;14732;51.074;3.788;2023-05-27T07:59:43;20.90;98.80
27226;DHT22;14732;51.074;3.788;2023-05-27T08:02:09;21.20;98.60
27226;DHT22;14732;51.074;3.788;2023-05-27T08:04:35;21.10;97.50
27226;DHT22;14732;51.074;3.788;2023-05-27T08:07:00;20.90;97.60
27226;DHT22;14732;51.074;3.788;2023-05-27T08:09:26;20.70;98.70
27226;DHT22;14732;51.074;3.788;2023-05-27T08:11:52;21.20;98.20
27226;DHT22;14732;51.074;3.788;2023-05-27T08:14:18;21.60;98.20
27226;DHT22;14732;51.074;3.788;2023-05-27T08:16:46;21.20;97.90
27226;DHT22;14732;51.074;3.788;2023-05-27T08:19:11;21.40;97.90
27226;DHT22;14732;51.074;3.788;2023-05-27T08:21:37;21.60;97.90
27226;DHT22;14732;51.074;3.788;2023-05-27T08:24:02;21.60;98.20
27226;DHT22;14732;51.074;3.788;2023-05-27T08:26:30;21.90;97.10
27226;DHT22;14732;51.074;3.788;2023-05-27T08:28:56;21.80;96.80
27226;DHT22;14732;51.074;3.788;2023-05-27T08:31:22;22.60;96.60
27226;DHT22;14732;51.074;3.788;2023-05-27T08:33:48;23.90;96.10
27226;DHT22;14732;51.074;3.788;2023-05-27T08:36:13;23.60;92.90
27226;DHT22;14732;51.074;3.788;2023-05-27T08:38:41;24.50;93.30
27226;DHT22;14732;51.074;3.788;2023-05-27T08:41:07;26.20;90.80
27226;DHT22;14732;51.074;3.788;2023-05-27T08:43:33;27.10;87.80
27226;DHT22;14732;51.074;3.788;2023-05-27T08:46:01;28.60;86.10
27226;DHT22;14732;51.074;3.788;2023-05-27T08:48:27;29.60;80.10
27226;DHT22;14732;51.074;3.788;2023-05-27T08:50:52;30.50;76.90
27226;DHT22;14732;51.074;3.788;2023-05-27T08:53:19;31.00;76.10
27226;DHT22;14732;51.074;3.788;2023-05-27T08:55:45;32.60;71.40
27226;DHT22;14732;51.074;3.788;2023-05-27T08:58:12;33.70;68.80
27226;DHT22;14732;51.074;3.788;2023-05-27T09:00:38;33.00;66.90
27226;DHT22;14732;51.074;3.788;2023-05-27T09:03:04;35.00;64.60
27226;DHT22;14732;51.074;3.788;2023-05-27T09:05:29;36.20;57.80
27226;DHT22;14732;51.074;3.788;2023-05-27T09:07:55;37.00;56.50
27226;DHT22;14732;51.074;3.788;2023-05-27T09:10:21;36.70;55.60
27226;DHT22;14732;51.074;3.788;2023-05-27T09:12:47;36.60;55.60
27226;DHT22;14732;51.074;3.788;2023-05-27T09:15:13;35.40;55.40
27226;DHT22;14732;51.074;3.788;2023-05-27T09:17:43;34.60;54.90
27226;DHT22;14732;51.074;3.788;2023-05-27T09:20:10;33.70;56.30
27226;DHT22;14732;51.074;3.788;2023-05-27T09:22:40;32.30;57.80
27226;DHT22;14732;51.074;3.788;2023-05-27T09:25:06;31.00;59.20
27226;DHT22;14732;51.074;3.788;2023-05-27T09:27:32;31.00;60.00
27226;DHT22;14732;51.074;3.788;2023-05-27T09:30:05;29.60;62.90
27226;DHT22;14732;51.074;3.788;2023-05-27T09:32:34;28.90;66.10
27226;DHT22;14732;51.074;3.788;2023-05-27T09:35:01;27.80;67.00
27226;DHT22;14732;51.074;3.788;2023-05-27T09:37:28;27.40;71.40
27226;DHT22;14732;51.074;3.788;2023-05-27T09:40:11;26.70;69.30
27226;DHT22;14732;51.074;3.788;2023-05-27T09:42:40;26.20;70.90
27226;DHT22;14732;51.074;3.788;2023-05-27T09:45:10;25.40;75.30
27226;DHT22;14732;51.074;3.788;2023-05-27T09:47:43;24.40;76.70
27226;DHT22;14732;51.074;3.788;2023-05-27T09:50:13;24.20;79.80
27226;DHT22;14732;51.074;3.788;2023-05-27T09:52:42;24.00;79.30
27226;DHT22;14732;51.074;3.788;2023-05-27T09:55:09;23.80;79.50
27226;DHT22;14732;51.074;3.788;2023-05-27T09:57:36;23.70;83.10
27226;DHT22;14732;51.074;3.788;2023-05-27T10:00:07;23.60;81.70
27226;DHT22;14732;51.074;3.788;2023-05-27T10:02:47;23.30;81.90
27226;DHT22;14732;51.074;3.788;2023-05-27T10:05:14;23.00;82.10
27226;DHT22;14732;51.074;3.788;2023-05-27T10:07:41;22.90;84.20
27226;DHT22;14732;51.074;3.788;2023-05-27T10:10:09;22.70;83.60
27226;DHT22;14732;51.074;3.788;2023-05-27T10:12:39;22.70;82.40
27226;DHT22;14732;51.074;3.788;2023-05-27T10:15:06;22.50;85.30
27226;DHT22;14732;51.074;3.788;2023-05-27T10:17:42;22.70;87.60
27226;DHT22;14732;51.074;3.788;2023-05-27T10:20:11;22.90;86.50
27226;DHT22;14732;51.074;3.788;2023-05-27T10:22:46;22.70;85.70
27226;DHT22;14732;51.074;3.788;2023-05-27T10:25:13;22.60;86.40
27226;DHT22;14732;51.074;3.788;2023-05-27T10:27:45;22.90;86.60
27226;DHT22;14732;51.074;3.788;2023-05-27T10:30:15;23.10;86.30
27226;DHT22;14732;51.074;3.788;2023-05-27T10:32:50;23.30;84.70
27226;DHT22;14732;51.074;3.788;2023-05-27T10:35:19;23.20;86.10
27226;DHT22;14732;51.074;3.788;2023-05-27T10:37:46;23.40;85.30
27226;DHT22;14732;51.074;3.788;2023-05-27T10:40:12;23.00;83.40
27226;DHT22;14732;51.074;3.788;2023-05-27T10:43:00;22.70;86.60
27226;DHT22;14732;51.074;3.788;2023-05-27T10:45:34;22.70;86.40
27226;DHT22;14732;51.074;3.788;2023-05-27T10:47:59;22.50;87.10
27226;DHT22;14732;51.074;3.788;2023-05-27T10:50:34;22.70;87.30
27226;DHT22;14732;51.074;3.788;2023-05-27T10:53:00;22.80;86.90
27226;DHT22;14732;51.074;3.788;2023-05-27T10:55:27;23.00;86.70
27226;DHT22;14732;51.074;3.788;2023-05-27T10:57:52;23.00;86.50
27226;DHT22;14732;51.074;3.788;2023-05-27T11:00:19;23.10;87.80
27226;DHT22;14732;51.074;3.788;2023-05-27T11:02:47;23.10;85.40
27226;DHT22;14732;51.074;3.788;2023-05-27T11:05:15;23.20;89.90
27226;DHT22;14732;51.074;3.788;2023-05-27T11:07:42;23.30;86.10
27226;DHT22;14732;51.074;3.788;2023-05-27T11:10:09;23.00;90.40
27226;DHT22;14732;51.074;3.788;2023-05-27T11:12:34;23.00;88.20
27226;DHT22;14732;51.074;3.788;2023-05-27T11:15:00;23.00;86.80
27226;DHT22;14732;51.074;3.788;2023-05-27T11:17:26;23.40;88.70
27226;DHT22;14732;51.074;3.788;2023-05-27T11:19:53;23.70;87.50
27226;DHT22;14732;51.074;3.788;2023-05-27T11:22:19;23.50;84.30
27226;DHT22;14732;51.074;3.788;2023-05-27T11:25:00;23.20;87.70
27226;DHT22;14732;51.074;3.788;2023-05-27T11:27:37;22.80;88.00
27226;DHT22;14732;51.074;3.788;2023-05-27T11:30:11;22.90;90.00
27226;DHT22;14732;51.074;3.788;2023-05-27T11:32:37;23.20;87.30
27226;DHT22;14732;51.074;3.788;2023-05-27T11:35:04;23.20;87.50
27226;DHT22;14732;51.074;3.788;2023-05-27T11:37:34;22.80;86.40
27226;DHT22;14732;51.074;3.788;2023-05-27T11:40:00;22.90;89.00
27226;DHT22;14732;51.074;3.788;2023-05-27T11:42:28;22.90;86.50
27226;DHT22;14732;51.074;3.788;2023-05-27T11:44:54;22.80;88.60
27226;DHT22;14732;51.074;3.788;2023-05-27T11:47:21;23.10;87.00
27226;DHT22;14732;51.074;3.788;2023-05-27T11:49:52;23.20;86.30
27226;DHT22;14732;51.074;3.788;2023-05-27T11:52:18;23.30;87.20
27226;DHT22;14732;51.074;3.788;2023-05-27T11:54:48;23.50;88.20
27226;DHT22;14732;51.074;3.788;2023-05-27T11:57:14;23.80;88.80
27226;DHT22;14732;51.074;3.788;2023-05-27T11:59:39;23.90;87.50
27226;DHT22;14732;51.074;3.788;2023-05-27T12:02:05;24.10;85.00
27226;DHT22;14732;51.074;3.788;2023-05-27T12:04:32;24.30;86.80
27226;DHT22;14732;51.074;3.788;2023-05-27T12:06:58;24.20;85.40
27226;DHT22;14732;51.074;3.788;2023-05-27T12:09:26;24.10;81.40
27226;DHT22;14732;51.074;3.788;2023-05-27T12:11:51;24.20;80.10
27226;DHT22;14732;51.074;3.788;2023-05-27T12:14:17;24.30;82.50
27226;DHT22;14732;51.074;3.788;2023-05-27T12:16:43;24.30;86.70
27226;DHT22;14732;51.074;3.788;2023-05-27T12:19:08;24.30;81.50
27226;DHT22;14732;51.074;3.788;2023-05-27T12:21:37;24.30;81.50
27226;DHT22;14732;51.074;3.788;2023-05-27T12:24:03;24.40;82.70
27226;DHT22;14732;51.074;3.788;2023-05-27T12:26:29;24.30;83.30
27226;DHT22;14732;51.074;3.788;2023-05-27T12:28:55;24.30;81.20
27226;DHT22;14732;51.074;3.788;2023-05-27T12:31:21;23.50;85.20
27226;DHT22;14732;51.074;3.788;2023-05-27T12:33:48;23.70;84.10
27226;DHT22;14732;51.074;3.788;2023-05-27T12:36:14;23.90;81.40
27226;DHT22;14732;51.074;3.788;2023-05-27T12:38:40;24.10;83.50
27226;DHT22;14732;51.074;3.788;2023-05-27T12:41:06;24.30;79.90
27226;DHT22;14732;51.074;3.788;2023-05-27T12:43:32;24.70;81.00
27226;DHT22;14732;51.074;3.788;2023-05-27T12:45:57;24.80;79.30
27226;DHT22;14732;51.074;3.788;2023-05-27T12:48:24;24.90;83.40
27226;DHT22;14732;51.074;3.788;2023-05-27T12:50:50;24.90;82.00
27226;DHT22;14732;51.074;3.788;2023-05-27T12:53:16;25.00;82.70
27226;DHT22;14732;51.074;3.788;2023-05-27T12:55:43;25.00;80.60
27226;DHT22;14732;51.074;3.788;2023-05-27T12:58:10;24.90;79.30
27226;DHT22;14732;51.074;3.788;2023-05-27T13:00:36;25.00;81.60
27226;DHT22;14732;51.074;3.788;2023-05-27T13:03:02;25.20;83.60
27226;DHT22;14732;51.074;3.788;2023-05-27T13:05:28;24.90;77.00
27226;DHT22;14732;51.074;3.788;2023-05-27T13:08:01;25.10;78.20
27226;DHT22;14732;51.074;3.788;2023-05-27T13:10:27;24.60;78.50
27226;DHT22;14732;51.074;3.788;2023-05-27T13:12:53;24.70;80.20
27226;DHT22;14732;51.074;3.788;2023-05-27T13:15:20;24.50;79.90
27226;DHT22;14732;51.074;3.788;2023-05-27T13:17:46;24.50;82.80
27226;DHT22;14732;51.074;3.788;2023-05-27T13:20:14;24.50;79.80
27226;DHT22;14732;51.074;3.788;2023-05-27T13:22:40;24.40;82.50
27226;DHT22;14732;51.074;3.788;2023-05-27T13:25:07;24.40;82.00
27226;DHT22;14732;51.074;3.788;2023-05-27T13:27:33;24.80;82.10
27226;DHT22;14732;51.074;3.788;2023-05-27T13:29:59;25.10;78.50
27226;DHT22;14732;51.074;3.788;2023-05-27T13:32:24;24.90;78.90
27226;DHT22;14732;51.074;3.788;2023-05-27T13:34:50;24.90;80.30
27226;DHT22;14732;51.074;3.788;2023-05-27T13:37:20;24.90;79.40
27226;DHT22;14732;51.074;3.788;2023-05-27T13:39:46;25.10;80.80
27226;DHT22;14732;51.074;3.788;2023-05-27T13:42:12;25.10;76.50
27226;DHT22;14732;51.074;3.788;2023-05-27T13:44:38;24.60;77.10
27226;DHT22;14732;51.074;3.788;2023-05-27T13:47:04;24.90;77.80
27226;DHT22;14732;51.074;3.788;2023-05-27T13:49:31;25.30;78.80
27226;DHT22;14732;51.074;3.788;2023-05-27T13:51:56;25.20;79.10
27226;DHT22;14732;51.074;3.788;2023-05-27T13:54:22;25.10;77.50
27226;DHT22;14732;51.074;3.788;2023-05-27T13:56:48;25.20;76.60
27226;DHT22;14732;51.074;3.788;2023-05-27T13:59:14;25.10;77.80
27226;DHT22;14732;51.074;3.788;2023-05-27T14:01:40;25.10;77.50
27226;DHT22;14732;51.074;3.788;2023-05-27T14:04:06;24.90;79.20
27226;DHT22;14732;51.074;3.788;2023-05-27T14:06:32;25.10;77.00
27226;DHT22;14732;51.074;3.788;2023-05-27T14:08:58;25.20;76.30
27226;DHT22;14732;51.074;3.788;2023-05-27T14:11:23;25.30;79.60
27226;DHT22;14732;51.074;3.788;2023-05-27T14:13:49;25.00;75.50
27226;DHT22;14732;51.074;3.788;2023-05-27T14:16:16;25.10;77.20
27226;DHT22;14732;51.074;3.788;2023-05-27T14:18:42;25.00;76.90
27226;DHT22;14732;51.074;3.788;2023-05-27T14:21:09;24.90;81.00
27226;DHT22;14732;51.074;3.788;2023-05-27T14:23:34;24.90;76.30
27226;DHT22;14732;51.074;3.788;2023-05-27T14:26:00;24.90;76.90
27226;DHT22;14732;51.074;3.788;2023-05-27T14:28:26;25.10;75.70
27226;DHT22;14732;51.074;3.788;2023-05-27T14:30:52;25.40;79.00
27226;DHT22;14732;51.074;3.788;2023-05-27T14:33:18;25.10;78.60
27226;DHT22;14732;51.074;3.788;2023-05-27T14:35:45;24.80;76.70
27226;DHT22;14732;51.074;3.788;2023-05-27T14:38:12;24.90;78.70
27226;DHT22;14732;51.074;3.788;2023-05-27T14:40:38;25.10;79.10
27226;DHT22;14732;51.074;3.788;2023-05-27T14:43:05;25.20;77.10
27226;DHT22;14732;51.074;3.788;2023-05-27T14:45:32;25.30;74.70
27226;DHT22;14732;51.074;3.788;2023-05-27T14:47:58;25.20;74.70
27226;DHT22;14732;51.074;3.788;2023-05-27T14:50:24;25.00;74.80
27226;DHT22;14732;51.074;3.788;2023-05-27T14:52:50;24.90;79.80
27226;DHT22;14732;51.074;3.788;2023-05-27T14:55:16;25.10;78.50
27226;DHT22;14732;51.074;3.788;2023-05-27T14:57:42;25.20;78.40
27226;DHT22;14732;51.074;3.788;2023-05-27T15:00:08;25.60;76.50
27226;DHT22;14732;51.074;3.788;2023-05-27T15:02:35;25.90;74.10
27226;DHT22;14732;51.074;3.788;2023-05-27T15:05:02;25.40;72.70
27226;DHT22;14732;51.074;3.788;2023-05-27T15:07:29;25.20;76.50
27226;DHT22;14732;51.074;3.788;2023-05-27T15:09:55;24.80;76.70
27226;DHT22;14732;51.074;3.788;2023-05-27T15:12:21;25.00;76.60
27226;DHT22;14732;51.074;3.788;2023-05-27T15:14:46;25.20;73.30
27226;DHT22;14732;51.074;3.788;2023-05-27T15:17:12;25.10;73.80
27226;DHT22;14732;51.074;3.788;2023-05-27T15:19:38;25.10;76.10
27226;DHT22;14732;51.074;3.788;2023-05-27T15:22:04;24.90;76.20
27226;DHT22;14732;51.074;3.788;2023-05-27T15:24:34;24.70;75.30
27226;DHT22;14732;51.074;3.788;2023-05-27T15:27:00;24.70;75.20
27226;DHT22;14732;51.074;3.788;2023-05-27T15:29:27;24.80;75.80
27226;DHT22;14732;51.074;3.788;2023-05-27T15:31:53;25.00;75.30